sensor_id;sensor_type;location;lat;lon;timestamp;pressure;altitude;pressure_sealevel;temperature;humidity
63773;BME280;49919;53.612;55.898;2022-08-21T00:01:02;100741.84;;;20.75;56.25
63773;BME280;49919;53.612;55.898;2022-08-21T00:02:34;100745.38;;;20.75;56.18
63773;BME280;49919;53.612;55.898;2022-08-21T00:04:06;100741.84;;;20.75;56.43
63773;BME280;49919;53.612;55.898;2022-08-21T00:05:41;100743.19;;;20.72;56.31
63773;BME280;49919;53.612;55.898;2022-08-21T00:07:12;100737.53;;;20.69;56.38
63773;BME280;49919;53.612;55.898;2022-08-21T00:08:43;100735.34;;;20.66;56.56
63773;BME280;49919;53.612;55.898;2022-08-21T00:10:14;100732.66;;;20.66;56.67
63773;BME280;49919;53.612;55.898;2022-08-21T00:11:46;100725.63;;;20.65;56.79
63773;BME280;49919;53.612;55.898;2022-08-21T00:13:18;100733.72;;;20.65;56.77
63773;BME280;49919;53.612;55.898;2022-08-21T00:14:50;100732.38;;;20.62;56.78
63773;BME280;49919;53.612;55.898;2022-08-21T00:16:21;100729.94;;;20.61;56.98
63773;BME280;49919;53.612;55.898;2022-08-21T00:17:54;100730.50;;;20.58;56.98
63773;BME280;49919;53.612;55.898;2022-08-21T00:19:25;100728.59;;;20.58;57.04
63773;BME280;49919;53.612;55.898;2022-08-21T00:20:56;100738.09;;;20.56;56.92
63773;BME280;49919;53.612;55.898;2022-08-21T00:22:27;100734.84;;;20.53;56.99
63773;BME280;49919;53.612;55.898;2022-08-21T00:23:58;100737.25;;;20.50;57.23
63773;BME280;49919;53.612;55.898;2022-08-21T00:25:30;100735.38;;;20.50;57.07
63773;BME280;49919;53.612;55.898;2022-08-21T00:27:01;100736.44;;;20.49;57.13
63773;BME280;49919;53.612;55.898;2022-08-21T00:28:32;100738.59;;;20.47;57.16
63773;BME280;49919;53.612;55.898;2022-08-21T00:30:05;100740.22;;;20.48;57.28
63773;BME280;49919;53.612;55.898;2022-08-21T00:31:37;100742.94;;;20.48;57.61
63773;BME280;49919;53.612;55.898;2022-08-21T00:33:09;100732.13;;;20.43;57.33
63773;BME280;49919;53.612;55.898;2022-08-21T00:34:41;100740.50;;;20.47;57.41
63773;BME280;49919;53.612;55.898;2022-08-21T00:36:12;100737.78;;;20.47;57.42
63773;BME280;49919;53.612;55.898;2022-08-21T00:37:43;100732.13;;;20.43;57.65
63773;BME280;49919;53.612;55.898;2022-08-21T00:39:14;100725.09;;;20.37;57.77
63773;BME280;49919;53.612;55.898;2022-08-21T00:40:49;100734.22;;;20.36;57.85
63773;BME280;49919;53.612;55.898;2022-08-21T00:42:21;100733.19;;;20.32;58.02
63773;BME280;49919;53.612;55.898;2022-08-21T00:43:52;100743.44;;;20.30;58.19
63773;BME280;49919;53.612;55.898;2022-08-21T00:45:23;100738.28;;;20.29;58.09
63773;BME280;49919;53.612;55.898;2022-08-21T00:46:54;100735.84;;;20.27;58.03
63773;BME280;49919;53.612;55.898;2022-08-21T00:48:25;100736.94;;;20.26;57.92
63773;BME280;49919;53.612;55.898;2022-08-21T00:49:57;100742.59;;;20.25;57.94
63773;BME280;49919;53.612;55.898;2022-08-21T00:52:03;100742.59;;;20.25;58.08
63773;BME280;49919;53.612;55.898;2022-08-21T00:53:38;100744.50;;;20.24;58.05
63773;BME280;49919;53.612;55.898;2022-08-21T00:55:10;100738.56;;;20.22;58.08
63773;BME280;49919;53.612;55.898;2022-08-21T00:56:42;100741.50;;;20.20;58.38
63773;BME280;49919;53.612;55.898;2022-08-21T00:58:14;100741.78;;;20.19;58.50
63773;BME280;49919;53.612;55.898;2022-08-21T00:59:49;100748.25;;;20.18;58.57
63773;BME280;49919;53.612;55.898;2022-08-21T01:01:21;100757.16;;;20.18;58.76
63773;BME280;49919;53.612;55.898;2022-08-21T01:02:52;100752.03;;;20.17;58.63
63773;BME280;49919;53.612;55.898;2022-08-21T01:04:24;100754.72;;;20.17;58.61
63773;BME280;49919;53.612;55.898;2022-08-21T01:05:55;100747.16;;;20.14;58.84
63773;BME280;49919;53.612;55.898;2022-08-21T01:07:26;100752.88;;;20.12;58.74
63773;BME280;49919;53.612;55.898;2022-08-21T01:08:57;100757.19;;;20.13;58.92
63773;BME280;49919;53.612;55.898;2022-08-21T01:10:28;100750.97;;;20.13;58.72
63773;BME280;49919;53.612;55.898;2022-08-21T01:12:00;100749.34;;;20.12;58.82
63773;BME280;49919;53.612;55.898;2022-08-21T01:13:34;100749.34;;;20.12;58.74
63773;BME280;49919;53.612;55.898;2022-08-21T01:15:06;100755.25;;;20.14;58.80
63773;BME280;49919;53.612;55.898;2022-08-21T01:16:42;100761.78;;;20.13;58.83
63773;BME280;49919;53.612;55.898;2022-08-21T01:18:16;100759.06;;;20.13;58.69
63773;BME280;49919;53.612;55.898;2022-08-21T01:19:47;100762.59;;;20.13;58.71
63773;BME280;49919;53.612;55.898;2022-08-21T01:21:21;100765.78;;;20.15;58.87
63773;BME280;49919;53.612;55.898;2022-08-21T01:22:52;100759.06;;;20.13;58.71
63773;BME280;49919;53.612;55.898;2022-08-21T01:24:23;100762.28;;;20.15;58.63
63773;BME280;49919;53.612;55.898;2022-08-21T01:25:54;100768.78;;;20.19;58.57
63773;BME280;49919;53.612;55.898;2022-08-21T01:27:26;100770.13;;;20.22;58.58
63773;BME280;49919;53.612;55.898;2022-08-21T01:29:02;100762.84;;;20.22;58.60
63773;BME280;49919;53.612;55.898;2022-08-21T01:30:35;100776.91;;;20.24;58.44
63773;BME280;49919;53.612;55.898;2022-08-21T01:32:13;100779.34;;;20.26;58.40
63773;BME280;49919;53.612;55.898;2022-08-21T01:33:44;100778.25;;;20.27;58.20
63773;BME280;49919;53.612;55.898;2022-08-21T01:35:17;100783.94;;;20.30;58.36
63773;BME280;49919;53.612;55.898;2022-08-21T01:36:49;100783.94;;;20.30;58.19
63773;BME280;49919;53.612;55.898;2022-08-21T01:38:20;100783.94;;;20.30;58.21
63773;BME280;49919;53.612;55.898;2022-08-21T01:39:51;100790.41;;;20.29;58.25
63773;BME280;49919;53.612;55.898;2022-08-21T01:41:22;100783.66;;;20.27;58.25
63773;BME280;49919;53.612;55.898;2022-08-21T01:42:53;100779.88;;;20.28;58.32
63773;BME280;49919;53.612;55.898;2022-08-21T01:44:25;100783.94;;;20.25;58.41
63773;BME280;49919;53.612;55.898;2022-08-21T01:45:56;100789.06;;;20.27;58.24
63773;BME280;49919;53.612;55.898;2022-08-21T01:47:27;100793.13;;;20.29;58.36
63773;BME280;49919;53.612;55.898;2022-08-21T01:48:58;100793.94;;;20.30;58.29
63773;BME280;49919;53.612;55.898;2022-08-21T01:50:29;100789.34;;;20.30;58.12
63773;BME280;49919;53.612;55.898;2022-08-21T01:52:00;100796.66;;;20.35;57.92
63773;BME280;49919;53.612;55.898;2022-08-21T01:53:32;100793.13;;;20.34;58.10
63773;BME280;49919;53.612;55.898;2022-08-21T01:55:07;100796.34;;;20.36;58.03
63773;BME280;49919;53.612;55.898;2022-08-21T01:56:42;100793.97;;;20.40;58.00
63773;BME280;49919;53.612;55.898;2022-08-21T01:58:14;100795.59;;;20.41;57.82
63773;BME280;49919;53.612;55.898;2022-08-21T01:59:45;100795.59;;;20.41;57.76
63773;BME280;49919;53.612;55.898;2022-08-21T02:01:16;100796.69;;;20.45;57.76
63773;BME280;49919;53.612;55.898;2022-08-21T02:02:46;100802.91;;;20.45;57.66
63773;BME280;49919;53.612;55.898;2022-08-21T02:04:17;100801.28;;;20.44;57.61
63773;BME280;49919;53.612;55.898;2022-08-21T02:05:48;100802.38;;;20.53;57.44
63773;BME280;49919;53.612;55.898;2022-08-21T02:07:19;100802.66;;;20.52;57.39
63773;BME280;49919;53.612;55.898;2022-08-21T02:08:50;100806.13;;;20.58;57.36
63773;BME280;49919;53.612;55.898;2022-08-21T02:10:25;100802.09;;;20.60;57.07
63773;BME280;49919;53.612;55.898;2022-08-21T02:11:57;100803.72;;;20.61;57.09
63773;BME280;49919;53.612;55.898;2022-08-21T02:13:28;100803.44;;;20.63;57.05
63773;BME280;49919;53.612;55.898;2022-08-21T02:14:59;100805.63;;;20.66;57.05
63773;BME280;49919;53.612;55.898;2022-08-21T02:16:31;100807.78;;;20.69;56.91
63773;BME280;49919;53.612;55.898;2022-08-21T02:18:05;100805.63;;;20.71;56.85
63773;BME280;49919;53.612;55.898;2022-08-21T02:19:37;100804.00;;;20.70;56.81
63773;BME280;49919;53.612;55.898;2022-08-21T02:21:08;100807.25;;;20.72;56.80
63773;BME280;49919;53.612;55.898;2022-08-21T02:22:39;100805.34;;;20.72;56.68
63773;BME280;49919;53.612;55.898;2022-08-21T02:24:11;100797.53;;;20.76;56.69
63773;BME280;49919;53.612;55.898;2022-08-21T02:25:42;100798.31;;;20.81;56.60
63773;BME280;49919;53.612;55.898;2022-08-21T02:27:13;100800.75;;;20.88;56.26
63773;BME280;49919;53.612;55.898;2022-08-21T02:28:44;100805.63;;;20.91;56.27
63773;BME280;49919;53.612;55.898;2022-08-21T02:30:20;100813.19;;;20.94;56.14
63773;BME280;49919;53.612;55.898;2022-08-21T02:31:52;100806.72;;;20.95;56.07
63773;BME280;49919;53.612;55.898;2022-08-21T02:33:24;100809.69;;;20.99;55.84
63773;BME280;49919;53.612;55.898;2022-08-21T02:34:55;100809.38;;;21.00;55.94
63773;BME280;49919;53.612;55.898;2022-08-21T02:36:27;100819.66;;;21.03;55.76
63773;BME280;49919;53.612;55.898;2022-08-21T02:38:01;100801.00;;;21.07;55.72
63773;BME280;49919;53.612;55.898;2022-08-21T02:39:32;100815.34;;;21.12;55.51
63773;BME280;49919;53.612;55.898;2022-08-21T02:41:08;100816.41;;;21.11;55.44
63773;BME280;49919;53.612;55.898;2022-08-21T02:42:39;100818.31;;;21.16;55.40
63773;BME280;49919;53.612;55.898;2022-08-21T02:44:10;100816.69;;;21.15;55.49
63773;BME280;49919;53.612;55.898;2022-08-21T02:45:42;100823.47;;;21.12;55.33
63773;BME280;49919;53.612;55.898;2022-08-21T02:47:14;100820.47;;;21.14;55.50
63773;BME280;49919;53.612;55.898;2022-08-21T02:48:45;100824.53;;;21.16;55.46
63773;BME280;49919;53.612;55.898;2022-08-21T02:50:21;100822.66;;;21.22;55.25
63773;BME280;49919;53.612;55.898;2022-08-21T02:51:52;100818.03;;;21.23;55.30
63773;BME280;49919;53.612;55.898;2022-08-21T02:53:24;100814.00;;;21.25;55.18
63773;BME280;49919;53.612;55.898;2022-08-21T02:54:55;100819.41;;;21.30;54.98
63773;BME280;49919;53.612;55.898;2022-08-21T02:56:26;100816.16;;;21.33;54.97
63773;BME280;49919;53.612;55.898;2022-08-21T02:57:58;100816.16;;;21.33;54.96
63773;BME280;49919;53.612;55.898;2022-08-21T02:59:29;100818.59;;;21.35;55.01
63773;BME280;49919;53.612;55.898;2022-08-21T03:01:00;100820.22;;;21.36;55.00
63773;BME280;49919;53.612;55.898;2022-08-21T03:02:31;100828.31;;;21.36;54.85
63773;BME280;49919;53.612;55.898;2022-08-21T03:04:02;100823.72;;;21.41;55.00
63773;BME280;49919;53.612;55.898;2022-08-21T03:05:34;100816.38;;;21.47;54.79
63773;BME280;49919;53.612;55.898;2022-08-21T03:07:05;100816.38;;;21.52;54.80
63773;BME280;49919;53.612;55.898;2022-08-21T03:08:38;100818.00;;;21.58;54.56
63773;BME280;49919;53.612;55.898;2022-08-21T03:10:09;100820.41;;;21.60;54.62
63773;BME280;49919;53.612;55.898;2022-08-21T03:11:41;100820.69;;;21.63;54.55
63773;BME280;49919;53.612;55.898;2022-08-21T03:13:13;100822.00;;;21.71;54.44
63773;BME280;49919;53.612;55.898;2022-08-21T03:14:45;100826.31;;;21.77;54.15
63773;BME280;49919;53.612;55.898;2022-08-21T03:16:15;100830.09;;;21.81;54.05
63773;BME280;49919;53.612;55.898;2022-08-21T03:17:47;100827.13;;;21.82;54.13
63773;BME280;49919;53.612;55.898;2022-08-21T03:19:18;100824.91;;;21.89;53.97
63773;BME280;49919;53.612;55.898;2022-08-21T03:20:49;100823.81;;;21.90;53.99
63773;BME280;49919;53.612;55.898;2022-08-21T03:22:20;100822.19;;;21.95;53.87
63773;BME280;49919;53.612;55.898;2022-08-21T03:23:51;100825.94;;;21.99;53.85
63773;BME280;49919;53.612;55.898;2022-08-21T03:25:24;100831.38;;;22.04;53.89
63773;BME280;49919;53.612;55.898;2022-08-21T03:26:55;100824.31;;;22.08;53.66
63773;BME280;49919;53.612;55.898;2022-08-21T03:28:27;100824.81;;;22.15;53.67
63773;BME280;49919;53.612;55.898;2022-08-21T03:29:57;100828.31;;;22.20;53.55
63773;BME280;49919;53.612;55.898;2022-08-21T03:31:29;100826.41;;;22.26;53.27
63773;BME280;49919;53.612;55.898;2022-08-21T03:33:02;100830.13;;;22.30;53.15
63773;BME280;49919;53.612;55.898;2022-08-21T03:34:33;100826.59;;;22.35;53.27
63773;BME280;49919;53.612;55.898;2022-08-21T03:36:06;100823.06;;;22.39;52.93
63773;BME280;49919;53.612;55.898;2022-08-21T03:37:37;100827.34;;;22.45;52.90
63773;BME280;49919;53.612;55.898;2022-08-21T03:39:08;100822.72;;;22.51;52.72
63773;BME280;49919;53.612;55.898;2022-08-21T03:40:39;100827.56;;;22.54;52.69
63773;BME280;49919;53.612;55.898;2022-08-21T03:42:11;100827.25;;;22.61;52.47
63773;BME280;49919;53.612;55.898;2022-08-21T03:43:41;100825.06;;;22.63;52.49
63773;BME280;49919;53.612;55.898;2022-08-21T03:45:14;100830.75;;;22.66;52.46
63773;BME280;49919;53.612;55.898;2022-08-21T03:46:45;100827.72;;;22.73;52.21
63773;BME280;49919;53.612;55.898;2022-08-21T03:48:16;100826.03;;;22.77;52.02
63773;BME280;49919;53.612;55.898;2022-08-21T03:49:47;100831.72;;;22.80;51.90
63773;BME280;49919;53.612;55.898;2022-08-21T03:51:19;100833.06;;;22.83;51.84
63773;BME280;49919;53.612;55.898;2022-08-21T03:52:49;100827.63;;;22.88;51.99
63773;BME280;49919;53.612;55.898;2022-08-21T03:54:21;100827.88;;;22.92;51.65
63773;BME280;49919;53.612;55.898;2022-08-21T03:55:52;100841.06;;;22.98;51.62
63773;BME280;49919;53.612;55.898;2022-08-21T03:57:23;100838.59;;;23.02;51.52
63773;BME280;49919;53.612;55.898;2022-08-21T03:58:54;100836.09;;;23.10;51.20
63773;BME280;49919;53.612;55.898;2022-08-21T04:00:25;100837.16;;;23.14;51.05
63773;BME280;49919;53.612;55.898;2022-08-21T04:02:01;100828.50;;;23.12;50.91
63773;BME280;49919;53.612;55.898;2022-08-21T04:03:35;100839.28;;;23.17;50.99
63773;BME280;49919;53.612;55.898;2022-08-21T04:05:07;100841.41;;;23.20;50.99
63773;BME280;49919;53.612;55.898;2022-08-21T04:06:38;100844.09;;;23.25;50.92
63773;BME280;49919;53.612;55.898;2022-08-21T04:08:09;100843.78;;;23.32;50.86
63773;BME280;49919;53.612;55.898;2022-08-21T04:09:40;100845.84;;;23.40;50.77
63773;BME280;49919;53.612;55.898;2022-08-21T04:11:10;100847.69;;;23.45;50.69
63773;BME280;49919;53.612;55.898;2022-08-21T04:12:41;100851.19;;;23.50;50.86
63773;BME280;49919;53.612;55.898;2022-08-21T04:14:14;100850.59;;;23.58;50.61
63773;BME280;49919;53.612;55.898;2022-08-21T04:15:45;100849.13;;;23.66;50.65
63773;BME280;49919;53.612;55.898;2022-08-21T04:17:17;100852.59;;;23.72;50.32
63773;BME280;49919;53.612;55.898;2022-08-21T04:18:48;100853.38;;;23.77;50.50
63773;BME280;49919;53.612;55.898;2022-08-21T04:20:20;100852.19;;;23.83;50.33
63773;BME280;49919;53.612;55.898;2022-08-21T04:21:52;100852.94;;;23.89;50.40
63773;BME280;49919;53.612;55.898;2022-08-21T04:23:23;100853.69;;;23.95;50.30
63773;BME280;49919;53.612;55.898;2022-08-21T04:24:54;100857.97;;;24.01;49.87
63773;BME280;49919;53.612;55.898;2022-08-21T04:26:25;100851.28;;;24.12;49.78
63773;BME280;49919;53.612;55.898;2022-08-21T04:27:56;100858.81;;;24.20;49.96
63773;BME280;49919;53.612;55.898;2022-08-21T04:29:27;100854.88;;;24.31;49.48
63773;BME280;49919;53.612;55.898;2022-08-21T04:30:59;100852.31;;;24.40;49.41
63773;BME280;49919;53.612;55.898;2022-08-21T04:32:30;100858.50;;;24.45;49.35
63773;BME280;49919;53.612;55.898;2022-08-21T04:34:01;100855.63;;;24.55;49.01
63773;BME280;49919;53.612;55.898;2022-08-21T04:35:32;100858.78;;;24.63;48.91
63773;BME280;49919;53.612;55.898;2022-08-21T04:37:03;100857.50;;;24.74;48.62
63773;BME280;49919;53.612;55.898;2022-08-21T04:38:34;100853.53;;;24.85;48.24
63773;BME280;49919;53.612;55.898;2022-08-21T04:40:06;100856.16;;;24.90;48.24
63773;BME280;49919;53.612;55.898;2022-08-21T04:41:40;100860.16;;;24.98;47.85
63773;BME280;49919;53.612;55.898;2022-08-21T04:43:11;100856.16;;;25.09;47.95
63773;BME280;49919;53.612;55.898;2022-08-21T04:44:42;100859.28;;;25.16;47.57
63773;BME280;49919;53.612;55.898;2022-08-21T04:46:14;100853.75;;;25.21;47.51
63773;BME280;49919;53.612;55.898;2022-08-21T04:47:44;100854.41;;;25.32;47.20
63773;BME280;49919;53.612;55.898;2022-08-21T04:49:15;100844.72;;;25.39;47.32
63773;BME280;49919;53.612;55.898;2022-08-21T04:52:38;100844.25;;;25.51;46.74
63773;BME280;49919;53.612;55.898;2022-08-21T04:54:16;100848.38;;;25.62;46.56
63773;BME280;49919;53.612;55.898;2022-08-21T04:55:48;100841.16;;;25.71;46.48
63773;BME280;49919;53.612;55.898;2022-08-21T04:57:21;100843.47;;;25.78;46.04
63773;BME280;49919;53.612;55.898;2022-08-21T04:58:55;100850.03;;;25.90;45.93
63773;BME280;49919;53.612;55.898;2022-08-21T05:00:27;100845.97;;;26.02;45.68
63773;BME280;49919;53.612;55.898;2022-08-21T05:01:59;100840.22;;;26.03;45.47
63773;BME280;49919;53.612;55.898;2022-08-21T05:03:32;100844.16;;;26.11;45.19
63773;BME280;49919;53.612;55.898;2022-08-21T05:05:04;100842.81;;;26.22;45.01
63773;BME280;49919;53.612;55.898;2022-08-21T05:06:37;100837.16;;;26.32;44.79
63773;BME280;49919;53.612;55.898;2022-08-21T05:08:12;100848.31;;;26.44;44.54
63773;BME280;49919;53.612;55.898;2022-08-21T05:09:45;100838.31;;;26.53;44.32
63773;BME280;49919;53.612;55.898;2022-08-21T05:11:16;100848.50;;;26.61;44.23
63773;BME280;49919;53.612;55.898;2022-08-21T05:12:47;100841.94;;;26.62;44.10
63773;BME280;49919;53.612;55.898;2022-08-21T05:14:18;100835.97;;;26.60;44.26
63773;BME280;49919;53.612;55.898;2022-08-21T05:15:49;100840.47;;;26.65;44.32
63773;BME280;49919;53.612;55.898;2022-08-21T05:17:20;100844.09;;;26.74;44.36
63773;BME280;49919;53.612;55.898;2022-08-21T05:18:51;100842.09;;;26.88;43.79
63773;BME280;49919;53.612;55.898;2022-08-21T05:20:22;100839.84;;;27.04;43.59
63773;BME280;49919;53.612;55.898;2022-08-21T05:21:54;100839.56;;;27.14;43.47
63773;BME280;49919;53.612;55.898;2022-08-21T05:23:25;100841.53;;;27.22;43.00
63773;BME280;49919;53.612;55.898;2022-08-21T05:24:57;100832.88;;;27.29;43.09
63773;BME280;49919;53.612;55.898;2022-08-21T05:26:28;100839.53;;;27.37;43.12
63773;BME280;49919;53.612;55.898;2022-08-21T05:27:58;100838.28;;;27.43;42.72
63773;BME280;49919;53.612;55.898;2022-08-21T05:29:29;100844.41;;;27.48;42.33
63773;BME280;49919;53.612;55.898;2022-08-21T05:31:01;100835.56;;;27.51;42.21
63773;BME280;49919;53.612;55.898;2022-08-21T05:32:33;100838.69;;;27.58;42.30
63773;BME280;49919;53.612;55.898;2022-08-21T05:34:04;100839.22;;;27.69;41.87
63773;BME280;49919;53.612;55.898;2022-08-21T05:35:36;100842.59;;;27.75;42.12
63773;BME280;49919;53.612;55.898;2022-08-21T05:37:10;100839.41;;;27.81;41.76
63773;BME280;49919;53.612;55.898;2022-08-21T05:38:41;100840.56;;;27.89;41.43
63773;BME280;49919;53.612;55.898;2022-08-21T05:40:14;100836.06;;;27.93;41.51
63773;BME280;49919;53.612;55.898;2022-08-21T05:41:44;100828.69;;;28.02;41.48
63773;BME280;49919;53.612;55.898;2022-08-21T05:43:15;100830.16;;;28.08;40.75
63773;BME280;49919;53.612;55.898;2022-08-21T05:44:46;100837.22;;;28.18;40.60
63773;BME280;49919;53.612;55.898;2022-08-21T05:46:17;100832.94;;;28.34;40.54
63773;BME280;49919;53.612;55.898;2022-08-21T05:47:48;100841.78;;;28.48;39.93
63773;BME280;49919;53.612;55.898;2022-08-21T05:49:19;100836.78;;;28.59;39.87
63773;BME280;49919;53.612;55.898;2022-08-21T05:50:51;100839.38;;;28.64;40.06
63773;BME280;49919;53.612;55.898;2022-08-21T05:52:22;100834.06;;;28.76;39.95
63773;BME280;49919;53.612;55.898;2022-08-21T05:53:53;100830.19;;;28.86;39.68
63773;BME280;49919;53.612;55.898;2022-08-21T05:55:24;100828.09;;;28.91;39.11
63773;BME280;49919;53.612;55.898;2022-08-21T05:56:56;100828.91;;;28.92;39.35
63773;BME280;49919;53.612;55.898;2022-08-21T05:58:27;100841.94;;;28.86;39.58
63773;BME280;49919;53.612;55.898;2022-08-21T05:59:58;100831.47;;;28.88;39.58
63773;BME280;49919;53.612;55.898;2022-08-21T06:01:28;100827.44;;;28.94;39.31
63773;BME280;49919;53.612;55.898;2022-08-21T06:02:59;100829.50;;;29.06;39.24
63773;BME280;49919;53.612;55.898;2022-08-21T06:04:35;100821.91;;;29.20;38.79
63773;BME280;49919;53.612;55.898;2022-08-21T06:06:06;100824.28;;;29.30;38.64
63773;BME280;49919;53.612;55.898;2022-08-21T06:07:37;100832.66;;;29.43;38.16
63773;BME280;49919;53.612;55.898;2022-08-21T06:09:08;100826.84;;;29.44;37.98
63773;BME280;49919;53.612;55.898;2022-08-21T06:10:40;100824.22;;;29.48;38.34
63773;BME280;49919;53.612;55.898;2022-08-21T06:12:12;100826.00;;;29.52;38.42
63773;BME280;49919;53.612;55.898;2022-08-21T06:13:42;100831.78;;;29.59;38.00
63773;BME280;49919;53.612;55.898;2022-08-21T06:15:13;100815.16;;;29.64;38.19
63773;BME280;49919;53.612;55.898;2022-08-21T06:16:44;100826.06;;;29.73;37.75
63773;BME280;49919;53.612;55.898;2022-08-21T06:18:15;100820.91;;;29.72;37.68
63773;BME280;49919;53.612;55.898;2022-08-21T06:19:53;100818.31;;;29.75;37.64
63773;BME280;49919;53.612;55.898;2022-08-21T06:21:24;100823.41;;;29.85;37.75
63773;BME280;49919;53.612;55.898;2022-08-21T06:22:55;100814.31;;;29.93;37.55
63773;BME280;49919;53.612;55.898;2022-08-21T06:24:26;100812.84;;;30.05;37.35
63773;BME280;49919;53.612;55.898;2022-08-21T06:25:57;100814.38;;;30.14;37.13
63773;BME280;49919;53.612;55.898;2022-08-21T06:27:28;100821.78;;;30.14;36.88
63773;BME280;49919;53.612;55.898;2022-08-21T06:29:00;100818.06;;;30.18;36.97
63773;BME280;49919;53.612;55.898;2022-08-21T06:30:32;100816.88;;;30.28;36.59
63773;BME280;49919;53.612;55.898;2022-08-21T06:32:04;100814.22;;;30.31;36.36
63773;BME280;49919;53.612;55.898;2022-08-21T06:33:39;100814.50;;;30.39;36.47
63773;BME280;49919;53.612;55.898;2022-08-21T06:35:10;100821.66;;;30.52;36.12
63773;BME280;49919;53.612;55.898;2022-08-21T06:36:41;100816.72;;;30.66;36.25
63773;BME280;49919;53.612;55.898;2022-08-21T06:38:12;100814.34;;;30.77;36.07
63773;BME280;49919;53.612;55.898;2022-08-21T06:39:43;100814.41;;;30.89;35.88
63773;BME280;49919;53.612;55.898;2022-08-21T06:41:14;100818.56;;;31.07;36.01
63773;BME280;49919;53.612;55.898;2022-08-21T06:42:45;100822.06;;;31.16;35.56
63773;BME280;49919;53.612;55.898;2022-08-21T06:44:16;100807.59;;;31.19;35.30
63773;BME280;49919;53.612;55.898;2022-08-21T06:45:48;100808.84;;;31.10;35.45
63773;BME280;49919;53.612;55.898;2022-08-21T06:47:19;100807.84;;;31.14;35.55
63773;BME280;49919;53.612;55.898;2022-08-21T06:48:50;100814.28;;;31.30;35.24
63773;BME280;49919;53.612;55.898;2022-08-21T06:50:21;100800.19;;;31.44;35.01
63773;BME280;49919;53.612;55.898;2022-08-21T06:51:52;100805.47;;;31.49;34.74
63773;BME280;49919;53.612;55.898;2022-08-21T06:53:23;100811.19;;;31.56;34.29
63773;BME280;49919;53.612;55.898;2022-08-21T06:54:54;100806.72;;;31.64;34.30
63773;BME280;49919;53.612;55.898;2022-08-21T06:56:25;100799.66;;;31.75;34.18
63773;BME280;49919;53.612;55.898;2022-08-21T06:57:56;100795.72;;;31.88;33.98
63773;BME280;49919;53.612;55.898;2022-08-21T06:59:27;100807.53;;;31.89;33.97
63773;BME280;49919;53.612;55.898;2022-08-21T07:00:58;100793.88;;;31.92;33.90
63773;BME280;49919;53.612;55.898;2022-08-21T07:02:29;100798.81;;;31.99;34.18
63773;BME280;49919;53.612;55.898;2022-08-21T07:04:01;100795.31;;;32.14;33.66
63773;BME280;49919;53.612;55.898;2022-08-21T07:05:35;100796.56;;;32.29;33.47
63773;BME280;49919;53.612;55.898;2022-08-21T07:07:09;100791.13;;;32.45;32.95
63773;BME280;49919;53.612;55.898;2022-08-21T07:08:40;100797.44;;;32.45;32.96
63773;BME280;49919;53.612;55.898;2022-08-21T07:10:11;100791.41;;;32.55;32.96
63773;BME280;49919;53.612;55.898;2022-08-21T07:11:42;100787.63;;;32.60;32.71
63773;BME280;49919;53.612;55.898;2022-08-21T07:13:15;100789.03;;;32.69;32.58
63773;BME280;49919;53.612;55.898;2022-08-21T07:14:50;100785.13;;;32.83;32.44
63773;BME280;49919;53.612;55.898;2022-08-21T07:16:22;100784.94;;;32.91;32.37
63773;BME280;49919;53.612;55.898;2022-08-21T07:17:53;100784.44;;;33.01;31.89
63773;BME280;49919;53.612;55.898;2022-08-21T07:19:24;100791.38;;;33.11;31.43
63773;BME280;49919;53.612;55.898;2022-08-21T07:21:00;100778.31;;;33.08;31.18
63773;BME280;49919;53.612;55.898;2022-08-21T07:22:36;100779.19;;;33.12;31.61
63773;BME280;49919;53.612;55.898;2022-08-21T07:24:17;100782.66;;;33.09;31.33
63773;BME280;49919;53.612;55.898;2022-08-21T07:25:51;100782.75;;;33.13;31.64
63773;BME280;49919;53.612;55.898;2022-08-21T07:27:22;100778.91;;;33.17;31.13
63773;BME280;49919;53.612;55.898;2022-08-21T07:28:53;100779.56;;;33.26;31.17
63773;BME280;49919;53.612;55.898;2022-08-21T07:30:25;100777.25;;;33.28;30.59
63773;BME280;49919;53.612;55.898;2022-08-21T07:31:57;100774.50;;;33.28;30.64
63773;BME280;49919;53.612;55.898;2022-08-21T07:33:30;100768.16;;;33.44;30.36
63773;BME280;49919;53.612;55.898;2022-08-21T07:35:02;100777.13;;;33.56;30.47
63773;BME280;49919;53.612;55.898;2022-08-21T07:36:36;100775.78;;;33.66;30.27
63773;BME280;49919;53.612;55.898;2022-08-21T07:38:07;100772.56;;;33.64;30.02
63773;BME280;49919;53.612;55.898;2022-08-21T07:39:38;100761.38;;;33.57;29.96
63773;BME280;49919;53.612;55.898;2022-08-21T07:41:16;100770.19;;;33.62;30.03
63773;BME280;49919;53.612;55.898;2022-08-21T07:42:48;100776.50;;;33.63;29.88
63773;BME280;49919;53.612;55.898;2022-08-21T07:44:22;100777.56;;;33.74;29.89
63773;BME280;49919;53.612;55.898;2022-08-21T07:45:53;100769.81;;;33.80;29.41
63773;BME280;49919;53.612;55.898;2022-08-21T07:47:24;100781.91;;;33.75;29.44
63773;BME280;49919;53.612;55.898;2022-08-21T07:48:58;100777.19;;;33.76;29.34
63773;BME280;49919;53.612;55.898;2022-08-21T07:50:29;100773.91;;;33.70;29.41
63773;BME280;49919;53.612;55.898;2022-08-21T07:52:03;100768.03;;;33.71;29.19
63773;BME280;49919;53.612;55.898;2022-08-21T07:53:35;100769.72;;;33.76;29.08
63773;BME280;49919;53.612;55.898;2022-08-21T07:55:07;100769.00;;;33.79;28.74
63773;BME280;49919;53.612;55.898;2022-08-21T07:56:38;100769.25;;;33.90;28.70